sensor_id;sensor_type;location;lat;lon;timestamp;temperature;humidity
44247;DHT22;29922;0.000;0.000;2022-08-25T00:03:37;19.10;57.70
44247;DHT22;29922;0.000;0.000;2022-08-25T00:08:59;19.10;58.50
44247;DHT22;29922;0.000;0.000;2022-08-25T00:14:23;19.10;57.80
44247;DHT22;29922;0.000;0.000;2022-08-25T00:19:45;19.10;57.70
44247;DHT22;29922;0.000;0.000;2022-08-25T00:25:07;19.10;57.60
44247;DHT22;29922;0.000;0.000;2022-08-25T00:30:28;19.10;57.70
44247;DHT22;29922;0.000;0.000;2022-08-25T00:35:49;19.00;57.70
44247;DHT22;29922;0.000;0.000;2022-08-25T00:41:16;19.00;57.90
44247;DHT22;29922;0.000;0.000;2022-08-25T00:46:42;19.00;58.10
44247;DHT22;29922;0.000;0.000;2022-08-25T00:52:08;19.00;57.90
44247;DHT22;29922;0.000;0.000;2022-08-25T00:57:34;19.00;57.80
44247;DHT22;29922;0.000;0.000;2022-08-25T01:02:57;19.00;58.00
44247;DHT22;29922;0.000;0.000;2022-08-25T01:08:19;18.90;58.00
44247;DHT22;29922;0.000;0.000;2022-08-25T01:13:46;18.90;58.10
44247;DHT22;29922;0.000;0.000;2022-08-25T01:19:12;18.90;58.10
44247;DHT22;29922;0.000;0.000;2022-08-25T01:24:38;18.90;58.00
44247;DHT22;29922;0.000;0.000;2022-08-25T01:30:02;18.90;58.00
44247;DHT22;29922;0.000;0.000;2022-08-25T01:35:23;18.90;57.90
44247;DHT22;29922;0.000;0.000;2022-08-25T01:40:46;18.90;58.00
44247;DHT22;29922;0.000;0.000;2022-08-25T01:46:06;18.90;58.00
44247;DHT22;29922;0.000;0.000;2022-08-25T01:51:32;18.90;57.90
44247;DHT22;29922;0.000;0.000;2022-08-25T01:56:56;18.90;57.90
44247;DHT22;29922;0.000;0.000;2022-08-25T02:02:17;18.80;57.80
44247;DHT22;29922;0.000;0.000;2022-08-25T02:07:38;18.80;57.90
44247;DHT22;29922;0.000;0.000;2022-08-25T02:13:01;18.80;57.90
44247;DHT22;29922;0.000;0.000;2022-08-25T02:18:21;18.80;57.90
44247;DHT22;29922;0.000;0.000;2022-08-25T02:23:42;18.80;57.90
44247;DHT22;29922;0.000;0.000;2022-08-25T02:29:05;18.80;57.90
44247;DHT22;29922;0.000;0.000;2022-08-25T02:34:26;18.80;57.90
44247;DHT22;29922;0.000;0.000;2022-08-25T02:39:47;18.80;57.90
44247;DHT22;29922;0.000;0.000;2022-08-25T02:45:09;18.80;58.00
44247;DHT22;29922;0.000;0.000;2022-08-25T02:50:30;18.70;58.00
44247;DHT22;29922;0.000;0.000;2022-08-25T02:55:50;18.70;58.00
44247;DHT22;29922;0.000;0.000;2022-08-25T03:01:13;18.70;58.00
44247;DHT22;29922;0.000;0.000;2022-08-25T03:06:34;18.70;58.00
44247;DHT22;29922;0.000;0.000;2022-08-25T03:11:55;18.70;57.90
44247;DHT22;29922;0.000;0.000;2022-08-25T03:17:16;18.70;58.00
44247;DHT22;29922;0.000;0.000;2022-08-25T03:22:37;18.70;57.90
44247;DHT22;29922;0.000;0.000;2022-08-25T03:27:58;18.60;58.00
44247;DHT22;29922;0.000;0.000;2022-08-25T03:33:20;18.60;57.90
44247;DHT22;29922;0.000;0.000;2022-08-25T03:38:41;18.60;57.90
44247;DHT22;29922;0.000;0.000;2022-08-25T03:44:04;18.60;57.90
44247;DHT22;29922;0.000;0.000;2022-08-25T03:49:27;18.60;57.90
44247;DHT22;29922;0.000;0.000;2022-08-25T03:54:47;18.60;57.90
44247;DHT22;29922;0.000;0.000;2022-08-25T04:00:09;18.60;57.90
44247;DHT22;29922;0.000;0.000;2022-08-25T04:05:32;18.50;57.80
44247;DHT22;29922;0.000;0.000;2022-08-25T04:10:53;18.50;57.80
44247;DHT22;29922;0.000;0.000;2022-08-25T04:16:15;18.50;57.80
44247;DHT22;29922;0.000;0.000;2022-08-25T04:21:39;18.50;57.70
44247;DHT22;29922;0.000;0.000;2022-08-25T04:27:00;18.50;57.70
44247;DHT22;29922;0.000;0.000;2022-08-25T04:32:20;18.50;57.70
44247;DHT22;29922;0.000;0.000;2022-08-25T04:37:42;18.50;57.70
44247;DHT22;29922;0.000;0.000;2022-08-25T04:43:06;18.40;57.70
44247;DHT22;29922;0.000;0.000;2022-08-25T04:48:27;18.40;57.60
44247;DHT22;29922;0.000;0.000;2022-08-25T04:53:49;18.40;57.70
44247;DHT22;29922;0.000;0.000;2022-08-25T04:59:13;18.40;57.70
44247;DHT22;29922;0.000;0.000;2022-08-25T05:04:36;18.40;57.70
44247;DHT22;29922;0.000;0.000;2022-08-25T05:09:58;18.40;57.60
44247;DHT22;29922;0.000;0.000;2022-08-25T05:15:19;18.40;57.70
44247;DHT22;29922;0.000;0.000;2022-08-25T05:21:01;18.40;57.70
44247;DHT22;29922;0.000;0.000;2022-08-25T05:26:26;18.30;57.90
44247;DHT22;29922;0.000;0.000;2022-08-25T05:31:48;18.30;58.00
44247;DHT22;29922;0.000;0.000;2022-08-25T05:37:09;18.40;58.00
44247;DHT22;29922;0.000;0.000;2022-08-25T05:42:31;18.40;58.00
44247;DHT22;29922;0.000;0.000;2022-08-25T05:47:51;18.40;58.30
44247;DHT22;29922;0.000;0.000;2022-08-25T05:53:12;18.40;58.40
44247;DHT22;29922;0.000;0.000;2022-08-25T05:58:35;18.40;58.50
44247;DHT22;29922;0.000;0.000;2022-08-25T06:03:56;18.30;58.50
44247;DHT22;29922;0.000;0.000;2022-08-25T06:09:17;18.40;58.60
44247;DHT22;29922;0.000;0.000;2022-08-25T06:14:39;18.40;58.90
44247;DHT22;29922;0.000;0.000;2022-08-25T06:19:59;18.50;58.70
44247;DHT22;29922;0.000;0.000;2022-08-25T06:25:22;18.50;58.70
44247;DHT22;29922;0.000;0.000;2022-08-25T06:30:45;18.60;58.70
44247;DHT22;29922;0.000;0.000;2022-08-25T06:36:07;18.60;58.90
44247;DHT22;29922;0.000;0.000;2022-08-25T06:41:28;18.60;58.80
44247;DHT22;29922;0.000;0.000;2022-08-25T06:46:50;18.60;58.70
44247;DHT22;29922;0.000;0.000;2022-08-25T06:52:11;18.60;58.70
44247;DHT22;29922;0.000;0.000;2022-08-25T06:57:31;18.60;58.70
44247;DHT22;29922;0.000;0.000;2022-08-25T07:02:55;18.60;58.70
44247;DHT22;29922;0.000;0.000;2022-08-25T07:08:16;18.60;58.60
44247;DHT22;29922;0.000;0.000;2022-08-25T07:13:37;18.60;58.50
44247;DHT22;29922;0.000;0.000;2022-08-25T07:19:02;18.60;58.40
44247;DHT22;29922;0.000;0.000;2022-08-25T07:24:23;18.70;58.30
44247;DHT22;29922;0.000;0.000;2022-08-25T07:29:44;18.70;58.30
44247;DHT22;29922;0.000;0.000;2022-08-25T07:35:06;18.70;58.00
44247;DHT22;29922;0.000;0.000;2022-08-25T07:40:37;18.70;58.80
44247;DHT22;29922;0.000;0.000;2022-08-25T07:45:58;18.70;58.80
44247;DHT22;29922;0.000;0.000;2022-08-25T07:51:20;18.70;58.70
44247;DHT22;29922;0.000;0.000;2022-08-25T07:56:41;18.70;58.70
44247;DHT22;29922;0.000;0.000;2022-08-25T08:02:01;18.70;58.70
44247;DHT22;29922;0.000;0.000;2022-08-25T08:07:24;18.80;58.40
44247;DHT22;29922;0.000;0.000;2022-08-25T08:12:45;18.70;58.40
44247;DHT22;29922;0.000;0.000;2022-08-25T08:18:06;18.70;58.30
44247;DHT22;29922;0.000;0.000;2022-08-25T08:23:28;18.70;58.40
44247;DHT22;29922;0.000;0.000;2022-08-25T08:28:49;18.80;58.40
44247;DHT22;29922;0.000;0.000;2022-08-25T08:34:10;18.80;58.50
44247;DHT22;29922;0.000;0.000;2022-08-25T08:39:32;18.80;58.40
44247;DHT22;29922;0.000;0.000;2022-08-25T08:45:09;18.80;58.40
44247;DHT22;29922;0.000;0.000;2022-08-25T08:50:40;18.80;58.40
44247;DHT22;29922;0.000;0.000;2022-08-25T08:56:09;18.80;58.30
44247;DHT22;29922;0.000;0.000;2022-08-25T09:01:34;18.80;58.20
44247;DHT22;29922;0.000;0.000;2022-08-25T09:07:00;18.90;58.30
44247;DHT22;29922;0.000;0.000;2022-08-25T09:12:32;18.90;58.10
44247;DHT22;29922;0.000;0.000;2022-08-25T09:18:05;18.90;58.30
44247;DHT22;29922;0.000;0.000;2022-08-25T09:23:35;18.90;58.30
44247;DHT22;29922;0.000;0.000;2022-08-25T09:29:06;18.90;58.10
44247;DHT22;29922;0.000;0.000;2022-08-25T09:34:31;18.90;58.10
44247;DHT22;29922;0.000;0.000;2022-08-25T09:39:53;18.90;58.00
44247;DHT22;29922;0.000;0.000;2022-08-25T09:45:17;18.90;58.00
44247;DHT22;29922;0.000;0.000;2022-08-25T09:50:52;18.90;58.00
44247;DHT22;29922;0.000;0.000;2022-08-25T09:56:18;18.90;57.90
44247;DHT22;29922;0.000;0.000;2022-08-25T10:01:48;18.90;57.70
44247;DHT22;29922;0.000;0.000;2022-08-25T10:07:20;18.90;57.70
44247;DHT22;29922;0.000;0.000;2022-08-25T10:12:44;18.90;57.70
44247;DHT22;29922;0.000;0.000;2022-08-25T10:18:23;18.90;57.60
44247;DHT22;29922;0.000;0.000;2022-08-25T10:23:47;18.90;57.60
44247;DHT22;29922;0.000;0.000;2022-08-25T10:29:21;18.90;57.50
44247;DHT22;29922;0.000;0.000;2022-08-25T10:34:53;18.90;57.50
44247;DHT22;29922;0.000;0.000;2022-08-25T10:40:21;18.90;57.50
44247;DHT22;29922;0.000;0.000;2022-08-25T10:45:47;18.90;57.40
44247;DHT22;29922;0.000;0.000;2022-08-25T10:51:27;18.90;57.40
44247;DHT22;29922;0.000;0.000;2022-08-25T10:56:58;18.90;57.40
44247;DHT22;29922;0.000;0.000;2022-08-25T11:02:52;18.90;57.30
44247;DHT22;29922;0.000;0.000;2022-08-25T11:08:31;18.90;57.20
44247;DHT22;29922;0.000;0.000;2022-08-25T11:13:57;18.90;57.20
44247;DHT22;29922;0.000;0.000;2022-08-25T11:19:23;19.00;57.50
44247;DHT22;29922;0.000;0.000;2022-08-25T11:24:58;19.00;57.20
44247;DHT22;29922;0.000;0.000;2022-08-25T11:30:22;19.00;57.10
44247;DHT22;29922;0.000;0.000;2022-08-25T11:35:48;19.00;57.10
44247;DHT22;29922;0.000;0.000;2022-08-25T11:41:20;19.00;57.10
44247;DHT22;29922;0.000;0.000;2022-08-25T11:46:55;19.00;57.00
44247;DHT22;29922;0.000;0.000;2022-08-25T11:52:45;19.00;57.00
44247;DHT22;29922;0.000;0.000;2022-08-25T11:58:30;19.00;56.90
44247;DHT22;29922;0.000;0.000;2022-08-25T12:04:10;19.10;56.90
44247;DHT22;29922;0.000;0.000;2022-08-25T12:10:11;19.10;56.90
44247;DHT22;29922;0.000;0.000;2022-08-25T12:15:59;19.10;56.90
44247;DHT22;29922;0.000;0.000;2022-08-25T12:21:31;19.10;56.90
44247;DHT22;29922;0.000;0.000;2022-08-25T12:26:58;19.10;56.80
44247;DHT22;29922;0.000;0.000;2022-08-25T12:32:39;19.10;56.70
44247;DHT22;29922;0.000;0.000;2022-08-25T12:38:11;19.20;56.80
44247;DHT22;29922;0.000;0.000;2022-08-25T12:43:38;19.20;56.80
44247;DHT22;29922;0.000;0.000;2022-08-25T12:49:00;19.20;56.80
44247;DHT22;29922;0.000;0.000;2022-08-25T12:54:34;19.30;56.80
44247;DHT22;29922;0.000;0.000;2022-08-25T13:00:05;19.20;56.70
44247;DHT22;29922;0.000;0.000;2022-08-25T13:06:12;19.20;56.80
44247;DHT22;29922;0.000;0.000;2022-08-25T13:11:52;19.30;56.80
44247;DHT22;29922;0.000;0.000;2022-08-25T13:17:25;19.30;56.80
44247;DHT22;29922;0.000;0.000;2022-08-25T13:22:48;19.30;56.70
44247;DHT22;29922;0.000;0.000;2022-08-25T13:28:19;19.30;56.60
44247;DHT22;29922;0.000;0.000;2022-08-25T13:33:51;19.40;56.50
44247;DHT22;29922;0.000;0.000;2022-08-25T13:39:15;19.40;56.40
44247;DHT22;29922;0.000;0.000;2022-08-25T13:44:38;19.40;56.30
44247;DHT22;29922;0.000;0.000;2022-08-25T13:50:17;19.40;56.10
44247;DHT22;29922;0.000;0.000;2022-08-25T13:55:49;19.40;56.10
44247;DHT22;29922;0.000;0.000;2022-08-25T14:01:13;19.50;56.10
44247;DHT22;29922;0.000;0.000;2022-08-25T14:06:36;19.50;55.90
44247;DHT22;29922;0.000;0.000;2022-08-25T14:11:57;19.50;55.80
44247;DHT22;29922;0.000;0.000;2022-08-25T14:17:18;19.60;55.80
44247;DHT22;29922;0.000;0.000;2022-08-25T14:22:40;19.50;55.80
44247;DHT22;29922;0.000;0.000;2022-08-25T14:28:03;19.60;55.80
44247;DHT22;29922;0.000;0.000;2022-08-25T14:33:29;19.60;55.70
44247;DHT22;29922;0.000;0.000;2022-08-25T14:38:53;19.60;55.60
44247;DHT22;29922;0.000;0.000;2022-08-25T14:44:14;19.60;55.50
44247;DHT22;29922;0.000;0.000;2022-08-25T14:49:37;19.70;55.60
44247;DHT22;29922;0.000;0.000;2022-08-25T14:55:02;19.70;55.60
44247;DHT22;29922;0.000;0.000;2022-08-25T15:00:24;19.70;55.60
44247;DHT22;29922;0.000;0.000;2022-08-25T15:05:44;19.70;55.50
44247;DHT22;29922;0.000;0.000;2022-08-25T15:11:06;19.70;55.40
44247;DHT22;29922;0.000;0.000;2022-08-25T15:16:29;19.70;55.40
44247;DHT22;29922;0.000;0.000;2022-08-25T15:21:51;19.70;55.40
44247;DHT22;29922;0.000;0.000;2022-08-25T15:27:13;19.70;55.30
44247;DHT22;29922;0.000;0.000;2022-08-25T15:32:34;19.80;55.30
44247;DHT22;29922;0.000;0.000;2022-08-25T15:37:55;19.80;55.10
44247;DHT22;29922;0.000;0.000;2022-08-25T15:43:17;19.80;55.20
44247;DHT22;29922;0.000;0.000;2022-08-25T15:48:38;19.80;55.10
44247;DHT22;29922;0.000;0.000;2022-08-25T15:53:59;19.80;55.10
44247;DHT22;29922;0.000;0.000;2022-08-25T15:59:21;19.90;55.00
44247;DHT22;29922;0.000;0.000;2022-08-25T16:04:41;19.90;55.00
44247;DHT22;29922;0.000;0.000;2022-08-25T16:10:03;19.90;54.90
44247;DHT22;29922;0.000;0.000;2022-08-25T16:15:26;19.90;54.80
44247;DHT22;29922;0.000;0.000;2022-08-25T16:20:47;19.90;54.90
44247;DHT22;29922;0.000;0.000;2022-08-25T16:26:10;20.00;54.70
44247;DHT22;29922;0.000;0.000;2022-08-25T16:31:32;20.00;54.80
44247;DHT22;29922;0.000;0.000;2022-08-25T16:36:53;20.00;54.70
44247;DHT22;29922;0.000;0.000;2022-08-25T16:42:13;20.00;54.70
44247;DHT22;29922;0.000;0.000;2022-08-25T16:47:36;20.00;55.40
44247;DHT22;29922;0.000;0.000;2022-08-25T16:52:57;20.00;54.70
44247;DHT22;29922;0.000;0.000;2022-08-25T16:58:37;20.00;54.60
44247;DHT22;29922;0.000;0.000;2022-08-25T17:03:59;19.90;54.70
44247;DHT22;29922;0.000;0.000;2022-08-25T17:09:19;19.90;54.60
44247;DHT22;29922;0.000;0.000;2022-08-25T17:14:40;19.90;54.80
44247;DHT22;29922;0.000;0.000;2022-08-25T17:20:02;19.90;54.80
44247;DHT22;29922;0.000;0.000;2022-08-25T17:25:23;19.90;54.80
44247;DHT22;29922;0.000;0.000;2022-08-25T17:30:44;19.90;54.80
44247;DHT22;29922;0.000;0.000;2022-08-25T17:36:07;19.80;54.80
44247;DHT22;29922;0.000;0.000;2022-08-25T17:41:28;19.80;54.80
44247;DHT22;29922;0.000;0.000;2022-08-25T17:46:49;19.80;54.90
44247;DHT22;29922;0.000;0.000;2022-08-25T17:52:11;19.80;54.90
44247;DHT22;29922;0.000;0.000;2022-08-25T17:57:31;19.80;54.90
44247;DHT22;29922;0.000;0.000;2022-08-25T18:02:52;19.80;55.00
44247;DHT22;29922;0.000;0.000;2022-08-25T18:08:15;19.80;55.10
44247;DHT22;29922;0.000;0.000;2022-08-25T18:13:36;19.80;55.10
44247;DHT22;29922;0.000;0.000;2022-08-25T18:18:57;19.70;55.20
44247;DHT22;29922;0.000;0.000;2022-08-25T18:24:19;19.70;55.30
44247;DHT22;29922;0.000;0.000;2022-08-25T18:29:39;19.70;55.30
44247;DHT22;29922;0.000;0.000;2022-08-25T18:35:00;19.70;55.30
44247;DHT22;29922;0.000;0.000;2022-08-25T18:40:22;19.60;55.30
44247;DHT22;29922;0.000;0.000;2022-08-25T18:45:45;19.60;55.30
44247;DHT22;29922;0.000;0.000;2022-08-25T18:51:06;19.60;55.30
44247;DHT22;29922;0.000;0.000;2022-08-25T18:56:28;19.60;55.30
44247;DHT22;29922;0.000;0.000;2022-08-25T19:01:50;19.60;55.30
44247;DHT22;29922;0.000;0.000;2022-08-25T19:07:11;19.60;55.30
44247;DHT22;29922;0.000;0.000;2022-08-25T19:12:34;19.60;55.30
44247;DHT22;29922;0.000;0.000;2022-08-25T19:17:55;19.50;55.40
44247;DHT22;29922;0.000;0.000;2022-08-25T19:23:17;19.50;55.40
44247;DHT22;29922;0.000;0.000;2022-08-25T19:28:39;19.50;55.50
44247;DHT22;29922;0.000;0.000;2022-08-25T19:34:00;19.50;55.50
44247;DHT22;29922;0.000;0.000;2022-08-25T19:39:23;19.50;55.50
44247;DHT22;29922;0.000;0.000;2022-08-25T19:44:45;19.50;55.50
44247;DHT22;29922;0.000;0.000;2022-08-25T19:50:07;19.50;55.50
44247;DHT22;29922;0.000;0.000;2022-08-25T19:55:29;19.50;55.50
44247;DHT22;29922;0.000;0.000;2022-08-25T20:00:51;19.50;55.50
44247;DHT22;29922;0.000;0.000;2022-08-25T20:06:12;19.50;55.50
44247;DHT22;29922;0.000;0.000;2022-08-25T20:11:32;19.50;55.50
44247;DHT22;29922;0.000;0.000;2022-08-25T20:16:55;19.50;55.50
44247;DHT22;29922;0.000;0.000;2022-08-25T20:22:16;19.50;55.50
44247;DHT22;29922;0.000;0.000;2022-08-25T20:27:38;19.40;55.40
44247;DHT22;29922;0.000;0.000;2022-08-25T20:33:02;19.50;55.50
44247;DHT22;29922;0.000;0.000;2022-08-25T20:38:23;19.40;55.50
44247;DHT22;29922;0.000;0.000;2022-08-25T20:43:44;19.40;55.40
44247;DHT22;29922;0.000;0.000;2022-08-25T20:49:06;19.40;55.40
44247;DHT22;29922;0.000;0.000;2022-08-25T20:54:28;19.40;55.40
44247;DHT22;29922;0.000;0.000;2022-08-25T20:59:49;19.40;55.40
44247;DHT22;29922;0.000;0.000;2022-08-25T21:05:11;19.40;55.40
44247;DHT22;29922;0.000;0.000;2022-08-25T21:10:32;19.40;55.40
44247;DHT22;29922;0.000;0.000;2022-08-25T21:15:53;19.40;55.50
44247;DHT22;29922;0.000;0.000;2022-08-25T21:21:15;19.40;55.40
44247;DHT22;29922;0.000;0.000;2022-08-25T21:26:36;19.40;55.40
44247;DHT22;29922;0.000;0.000;2022-08-25T21:31:58;19.40;55.40
44247;DHT22;29922;0.000;0.000;2022-08-25T21:37:20;19.40;55.50
44247;DHT22;29922;0.000;0.000;2022-08-25T21:42:41;19.40;55.50
44247;DHT22;29922;0.000;0.000;2022-08-25T21:48:02;19.40;55.50
44247;DHT22;29922;0.000;0.000;2022-08-25T21:53:24;19.40;55.50
44247;DHT22;29922;0.000;0.000;2022-08-25T21:58:46;19.40;55.50
44247;DHT22;29922;0.000;0.000;2022-08-25T22:04:09;19.40;55.50
44247;DHT22;29922;0.000;0.000;2022-08-25T22:09:32;19.40;55.40
44247;DHT22;29922;0.000;0.000;2022-08-25T22:14:53;19.40;55.40
44247;DHT22;29922;0.000;0.000;2022-08-25T22:20:14;19.40;55.40
44247;DHT22;29922;0.000;0.000;2022-08-25T22:25:37;19.30;55.30
44247;DHT22;29922;0.000;0.000;2022-08-25T22:31:00;19.30;55.20
44247;DHT22;29922;0.000;0.000;2022-08-25T22:36:24;19.30;55.10
44247;DHT22;29922;0.000;0.000;2022-08-25T22:41:47;19.40;55.10
44247;DHT22;29922;0.000;0.000;2022-08-25T22:47:07;19.30;55.10
44247;DHT22;29922;0.000;0.000;2022-08-25T22:52:29;19.40;55.10
44247;DHT22;29922;0.000;0.000;2022-08-25T22:57:53;19.40;55.10
44247;DHT22;29922;0.000;0.000;2022-08-25T23:03:13;19.30;55.00
44247;DHT22;29922;0.000;0.000;2022-08-25T23:08:34;19.30;55.00
44247;DHT22;29922;0.000;0.000;2022-08-25T23:13:57;19.30;55.00
44247;DHT22;29922;0.000;0.000;2022-08-25T23:19:20;19.30;55.00
44247;DHT22;29922;0.000;0.000;2022-08-25T23:24:42;19.30;54.90
44247;DHT22;29922;0.000;0.000;2022-08-25T23:30:07;19.30;54.80
44247;DHT22;29922;0.000;0.000;2022-08-25T23:35:29;19.30;54.80
44247;DHT22;29922;0.000;0.000;2022-08-25T23:40:49;19.30;54.80
44247;DHT22;29922;0.000;0.000;2022-08-25T23:46:11;19.20;54.70
44247;DHT22;29922;0.000;0.000;2022-08-25T23:51:34;19.30;54.70
44247;DHT22;29922;0.000;0.000;2022-08-25T23:56:56;19.30;54.70
